sensor_id;sensor_type;location;lat;lon;timestamp;temperature;humidity
26589;DHT22;14235;48.532;8.722;2023-02-08T03:00:41;-3.20;99.90
26589;DHT22;14235;48.532;8.722;2023-02-08T03:03:18;-3.20;99.90
26589;DHT22;14235;48.532;8.722;2023-02-08T03:05:46;-3.20;99.90
26589;DHT22;14235;48.532;8.722;2023-02-08T03:08:18;-3.30;99.90
26589;DHT22;14235;48.532;8.722;2023-02-08T03:14:01;-3.30;99.90
26589;DHT22;14235;48.532;8.722;2023-02-08T03:40:36;-3.50;99.90
26589;DHT22;14235;48.532;8.722;2023-02-08T03:43:07;-3.50;99.90
26589;DHT22;14235;48.532;8.722;2023-02-08T03:45:38;-3.60;99.90
26589;DHT22;14235;48.532;8.722;2023-02-08T03:48:07;-3.70;99.90
26589;DHT22;14235;48.532;8.722;2023-02-08T03:50:36;-3.60;99.90
26589;DHT22;14235;48.532;8.722;2023-02-08T03:53:04;-3.60;99.90
26589;DHT22;14235;48.532;8.722;2023-02-08T03:55:32;-3.60;99.90
26589;DHT22;14235;48.532;8.722;2023-02-08T03:58:22;-3.70;99.90
26589;DHT22;14235;48.532;8.722;2023-02-08T04:00:59;-3.60;99.90
26589;DHT22;14235;48.532;8.722;2023-02-08T04:03:29;-3.70;99.90
26589;DHT22;14235;48.532;8.722;2023-02-08T04:05:56;-3.70;99.90
26589;DHT22;14235;48.532;8.722;2023-02-08T04:08:22;-3.80;99.90
26589;DHT22;14235;48.532;8.722;2023-02-08T04:10:48;-3.70;99.90
26589;DHT22;14235;48.532;8.722;2023-02-08T04:13:13;-3.70;99.90
26589;DHT22;14235;48.532;8.722;2023-02-08T04:15:39;-3.70;99.90
26589;DHT22;14235;48.532;8.722;2023-02-08T04:18:05;-3.80;99.90
26589;DHT22;14235;48.532;8.722;2023-02-08T04:20:30;-3.80;99.90
26589;DHT22;14235;48.532;8.722;2023-02-08T04:22:56;-3.80;99.90
26589;DHT22;14235;48.532;8.722;2023-02-08T04:25:22;-3.80;99.90
26589;DHT22;14235;48.532;8.722;2023-02-08T04:27:48;-3.90;99.90
26589;DHT22;14235;48.532;8.722;2023-02-08T04:30:13;-3.90;99.90
26589;DHT22;14235;48.532;8.722;2023-02-08T05:07:11;-4.10;99.90
26589;DHT22;14235;48.532;8.722;2023-02-08T05:09:37;-4.10;99.90
26589;DHT22;14235;48.532;8.722;2023-02-08T06:03:38;-4.50;99.90
26589;DHT22;14235;48.532;8.722;2023-02-08T06:06:05;-4.60;99.90
26589;DHT22;14235;48.532;8.722;2023-02-08T06:08:31;-4.50;99.90
26589;DHT22;14235;48.532;8.722;2023-02-08T06:10:57;-4.60;99.90
26589;DHT22;14235;48.532;8.722;2023-02-08T06:13:22;-4.60;99.90
26589;DHT22;14235;48.532;8.722;2023-02-08T06:15:48;-4.70;99.90
26589;DHT22;14235;48.532;8.722;2023-02-08T06:18:14;-4.60;99.90
26589;DHT22;14235;48.532;8.722;2023-02-08T06:20:39;-4.70;99.90
26589;DHT22;14235;48.532;8.722;2023-02-08T06:23:05;-4.80;99.90
26589;DHT22;14235;48.532;8.722;2023-02-08T06:25:31;-4.70;99.90
26589;DHT22;14235;48.532;8.722;2023-02-08T06:27:56;-4.70;99.90
26589;DHT22;14235;48.532;8.722;2023-02-08T06:30:22;-4.70;99.90
26589;DHT22;14235;48.532;8.722;2023-02-08T06:32:47;-4.70;99.90
26589;DHT22;14235;48.532;8.722;2023-02-08T06:35:13;-4.80;99.90
26589;DHT22;14235;48.532;8.722;2023-02-08T06:37:39;-4.70;99.90
26589;DHT22;14235;48.532;8.722;2023-02-08T06:40:05;-4.80;99.90
26589;DHT22;14235;48.532;8.722;2023-02-08T06:42:31;-4.60;99.90
26589;DHT22;14235;48.532;8.722;2023-02-08T06:44:56;-4.80;99.90
26589;DHT22;14235;48.532;8.722;2023-02-08T06:47:26;-4.70;99.90
26589;DHT22;14235;48.532;8.722;2023-02-08T06:49:52;-4.70;99.90
26589;DHT22;14235;48.532;8.722;2023-02-08T06:52:18;-4.70;99.90
26589;DHT22;14235;48.532;8.722;2023-02-08T06:54:44;-4.80;99.90
26589;DHT22;14235;48.532;8.722;2023-02-08T06:57:10;-4.80;99.90
26589;DHT22;14235;48.532;8.722;2023-02-08T06:59:38;-4.80;99.90
26589;DHT22;14235;48.532;8.722;2023-02-08T07:02:03;-4.80;99.90
26589;DHT22;14235;48.532;8.722;2023-02-08T07:04:29;-4.80;99.90
26589;DHT22;14235;48.532;8.722;2023-02-08T07:06:55;-4.80;99.90
26589;DHT22;14235;48.532;8.722;2023-02-08T07:09:21;-4.90;99.90
26589;DHT22;14235;48.532;8.722;2023-02-08T07:11:46;-4.80;99.90
26589;DHT22;14235;48.532;8.722;2023-02-08T07:14:13;-4.90;99.90
26589;DHT22;14235;48.532;8.722;2023-02-08T07:16:39;-4.80;99.90
26589;DHT22;14235;48.532;8.722;2023-02-08T07:19:05;-4.80;99.90
26589;DHT22;14235;48.532;8.722;2023-02-08T07:21:31;-5.00;99.90
26589;DHT22;14235;48.532;8.722;2023-02-08T07:23:56;-5.00;99.90
26589;DHT22;14235;48.532;8.722;2023-02-08T07:26:22;-4.80;99.90
26589;DHT22;14235;48.532;8.722;2023-02-08T07:28:48;-4.80;99.90
26589;DHT22;14235;48.532;8.722;2023-02-08T07:31:15;-4.80;99.90
26589;DHT22;14235;48.532;8.722;2023-02-08T07:33:41;-4.80;99.90
26589;DHT22;14235;48.532;8.722;2023-02-08T07:36:07;-4.80;99.90
26589;DHT22;14235;48.532;8.722;2023-02-08T07:38:33;-4.80;99.90
26589;DHT22;14235;48.532;8.722;2023-02-08T07:41:01;-4.80;99.90
26589;DHT22;14235;48.532;8.722;2023-02-08T07:43:26;-4.80;99.90
26589;DHT22;14235;48.532;8.722;2023-02-08T07:45:52;-4.80;99.90
26589;DHT22;14235;48.532;8.722;2023-02-08T07:48:17;-4.80;99.90
26589;DHT22;14235;48.532;8.722;2023-02-08T07:50:44;-4.80;99.90
26589;DHT22;14235;48.532;8.722;2023-02-08T07:53:10;-4.80;99.90
26589;DHT22;14235;48.532;8.722;2023-02-08T07:55:35;-4.80;99.90
26589;DHT22;14235;48.532;8.722;2023-02-08T07:58:01;-4.80;99.90
26589;DHT22;14235;48.532;8.722;2023-02-08T08:00:26;-4.80;99.90
26589;DHT22;14235;48.532;8.722;2023-02-08T08:02:52;-4.80;99.90
26589;DHT22;14235;48.532;8.722;2023-02-08T08:05:18;-4.70;99.90
26589;DHT22;14235;48.532;8.722;2023-02-08T08:07:44;-4.70;99.90
26589;DHT22;14235;48.532;8.722;2023-02-08T08:10:09;-4.80;99.90
26589;DHT22;14235;48.532;8.722;2023-02-08T08:12:35;-4.70;99.90
26589;DHT22;14235;48.532;8.722;2023-02-08T08:15:00;-4.70;99.90
26589;DHT22;14235;48.532;8.722;2023-02-08T08:17:26;-4.70;99.90
26589;DHT22;14235;48.532;8.722;2023-02-08T08:19:51;-4.60;99.90
26589;DHT22;14235;48.532;8.722;2023-02-08T08:22:17;-4.40;99.90
26589;DHT22;14235;48.532;8.722;2023-02-08T08:24:42;-4.70;99.90
26589;DHT22;14235;48.532;8.722;2023-02-08T08:27:08;-4.50;99.90
26589;DHT22;14235;48.532;8.722;2023-02-08T08:29:35;-4.60;99.90
26589;DHT22;14235;48.532;8.722;2023-02-08T08:32:01;-4.50;99.90
26589;DHT22;14235;48.532;8.722;2023-02-08T08:34:27;-4.50;99.90
26589;DHT22;14235;48.532;8.722;2023-02-08T08:36:56;-4.60;99.90
26589;DHT22;14235;48.532;8.722;2023-02-08T08:39:22;-4.40;99.90
26589;DHT22;14235;48.532;8.722;2023-02-08T08:41:48;-4.30;99.90
26589;DHT22;14235;48.532;8.722;2023-02-08T08:44:14;-4.40;99.90
26589;DHT22;14235;48.532;8.722;2023-02-08T08:46:40;-4.30;99.90
26589;DHT22;14235;48.532;8.722;2023-02-08T08:49:05;-4.20;99.90
26589;DHT22;14235;48.532;8.722;2023-02-08T08:51:31;-4.20;99.90
26589;DHT22;14235;48.532;8.722;2023-02-08T08:54:01;-4.20;99.90
26589;DHT22;14235;48.532;8.722;2023-02-08T08:56:26;-4.00;99.90
26589;DHT22;14235;48.532;8.722;2023-02-08T08:58:52;-4.00;99.90
26589;DHT22;14235;48.532;8.722;2023-02-08T09:01:17;-3.90;99.90
26589;DHT22;14235;48.532;8.722;2023-02-08T09:03:43;-3.90;99.90
26589;DHT22;14235;48.532;8.722;2023-02-08T09:06:09;-3.80;99.90
26589;DHT22;14235;48.532;8.722;2023-02-08T09:08:34;-3.80;99.90
26589;DHT22;14235;48.532;8.722;2023-02-08T09:11:07;-3.70;99.90
26589;DHT22;14235;48.532;8.722;2023-02-08T09:13:33;-3.60;99.90
26589;DHT22;14235;48.532;8.722;2023-02-08T09:16:04;-3.70;99.90
26589;DHT22;14235;48.532;8.722;2023-02-08T09:18:30;-3.50;99.90
26589;DHT22;14235;48.532;8.722;2023-02-08T09:20:56;-3.30;99.90
26589;DHT22;14235;48.532;8.722;2023-02-08T09:23:23;-3.40;99.90
26589;DHT22;14235;48.532;8.722;2023-02-08T09:25:49;-3.20;99.90
26589;DHT22;14235;48.532;8.722;2023-02-08T09:28:15;-3.20;99.90
26589;DHT22;14235;48.532;8.722;2023-02-08T09:30:41;-3.10;99.90
26589;DHT22;14235;48.532;8.722;2023-02-08T09:33:07;-3.00;99.90
26589;DHT22;14235;48.532;8.722;2023-02-08T09:35:33;-2.90;99.90
26589;DHT22;14235;48.532;8.722;2023-02-08T09:37:59;-3.10;99.90
26589;DHT22;14235;48.532;8.722;2023-02-08T09:40:42;-2.80;99.90
26589;DHT22;14235;48.532;8.722;2023-02-08T09:43:17;-2.70;99.90
26589;DHT22;14235;48.532;8.722;2023-02-08T09:45:55;-2.70;99.90
26589;DHT22;14235;48.532;8.722;2023-02-08T09:48:35;-2.70;99.90
26589;DHT22;14235;48.532;8.722;2023-02-08T09:51:14;-2.60;99.90
26589;DHT22;14235;48.532;8.722;2023-02-08T09:53:49;-2.50;99.90
26589;DHT22;14235;48.532;8.722;2023-02-08T09:56:25;-2.40;99.90
26589;DHT22;14235;48.532;8.722;2023-02-08T09:58:52;-2.30;99.90
26589;DHT22;14235;48.532;8.722;2023-02-08T10:01:29;-2.30;99.90
26589;DHT22;14235;48.532;8.722;2023-02-08T10:06:38;-2.00;99.90
26589;DHT22;14235;48.532;8.722;2023-02-08T10:09:06;-2.00;99.90
26589;DHT22;14235;48.532;8.722;2023-02-08T10:14:22;-1.80;99.90
26589;DHT22;14235;48.532;8.722;2023-02-08T10:24:46;-1.50;99.90
26589;DHT22;14235;48.532;8.722;2023-02-08T10:27:39;-1.20;99.90
26589;DHT22;14235;48.532;8.722;2023-02-08T10:35:29;-1.00;99.90
26589;DHT22;14235;48.532;8.722;2023-02-08T10:38:23;-0.80;99.90
26589;DHT22;14235;48.532;8.722;2023-02-08T10:40:50;-0.80;99.90
26589;DHT22;14235;48.532;8.722;2023-02-08T10:46:23;-0.10;99.90
26589;DHT22;14235;48.532;8.722;2023-02-08T10:51:49;-0.20;99.90
26589;DHT22;14235;48.532;8.722;2023-02-08T10:54:15;-0.10;99.90
26589;DHT22;14235;48.532;8.722;2023-02-08T10:56:55;0.00;99.90
26589;DHT22;14235;48.532;8.722;2023-02-08T10:59:45;0.10;99.90
26589;DHT22;14235;48.532;8.722;2023-02-08T11:02:23;0.30;99.90
26589;DHT22;14235;48.532;8.722;2023-02-08T11:05:30;0.50;99.90
26589;DHT22;14235;48.532;8.722;2023-02-08T11:10:31;0.60;99.90
26589;DHT22;14235;48.532;8.722;2023-02-08T11:15:42;0.80;99.90
26589;DHT22;14235;48.532;8.722;2023-02-08T11:48:41;1.80;99.90
26589;DHT22;14235;48.532;8.722;2023-02-08T11:51:08;1.90;99.90
26589;DHT22;14235;48.532;8.722;2023-02-08T11:53:36;2.00;99.90
26589;DHT22;14235;48.532;8.722;2023-02-08T11:56:21;2.50;99.90
26589;DHT22;14235;48.532;8.722;2023-02-08T11:59:27;2.10;99.90
26589;DHT22;14235;48.532;8.722;2023-02-08T12:01:53;2.20;99.90
26589;DHT22;14235;48.532;8.722;2023-02-08T12:04:19;2.30;99.90
26589;DHT22;14235;48.532;8.722;2023-02-08T12:22:41;3.10;99.90
26589;DHT22;14235;48.532;8.722;2023-02-08T12:52:43;3.90;99.90
26589;DHT22;14235;48.532;8.722;2023-02-08T12:57:43;4.10;99.70
26589;DHT22;14235;48.532;8.722;2023-02-08T13:56:09;5.80;97.20
26589;DHT22;14235;48.532;8.722;2023-02-08T14:17:16;6.60;97.40
26589;DHT22;14235;48.532;8.722;2023-02-08T14:19:43;6.60;95.90
26589;DHT22;14235;48.532;8.722;2023-02-08T14:27:35;6.70;95.70
26589;DHT22;14235;48.532;8.722;2023-02-08T14:32:47;6.60;96.00
26589;DHT22;14235;48.532;8.722;2023-02-08T14:37:40;6.60;95.30
26589;DHT22;14235;48.532;8.722;2023-02-08T14:42:59;6.80;95.30
26589;DHT22;14235;48.532;8.722;2023-02-08T14:45:29;6.80;94.70
26589;DHT22;14235;48.532;8.722;2023-02-08T14:47:59;6.90;94.30
26589;DHT22;14235;48.532;8.722;2023-02-08T14:50:29;6.90;94.20
26589;DHT22;14235;48.532;8.722;2023-02-08T14:53:05;7.10;94.00
26589;DHT22;14235;48.532;8.722;2023-02-08T14:55:48;6.90;93.90
26589;DHT22;14235;48.532;8.722;2023-02-08T15:39:35;4.40;94.60
26589;DHT22;14235;48.532;8.722;2023-02-08T15:42:04;4.50;93.90
26589;DHT22;14235;48.532;8.722;2023-02-08T15:44:32;4.40;93.80
26589;DHT22;14235;48.532;8.722;2023-02-08T15:47:08;4.40;94.20
26589;DHT22;14235;48.532;8.722;2023-02-08T18:18:22;1.80;99.90
26589;DHT22;14235;48.532;8.722;2023-02-08T18:20:48;1.70;99.90
26589;DHT22;14235;48.532;8.722;2023-02-08T18:23:13;1.70;99.90
26589;DHT22;14235;48.532;8.722;2023-02-08T18:25:39;1.60;99.90
26589;DHT22;14235;48.532;8.722;2023-02-08T18:28:05;1.60;99.90
26589;DHT22;14235;48.532;8.722;2023-02-08T18:30:31;1.60;99.90
26589;DHT22;14235;48.532;8.722;2023-02-08T18:35:24;1.30;99.90
26589;DHT22;14235;48.532;8.722;2023-02-08T18:37:49;1.30;99.90
26589;DHT22;14235;48.532;8.722;2023-02-08T18:40:15;1.30;99.90
26589;DHT22;14235;48.532;8.722;2023-02-08T18:42:41;1.50;99.90
26589;DHT22;14235;48.532;8.722;2023-02-08T19:26:54;1.00;99.90
26589;DHT22;14235;48.532;8.722;2023-02-08T19:29:20;1.40;99.90
26589;DHT22;14235;48.532;8.722;2023-02-08T19:31:47;0.90;99.90
26589;DHT22;14235;48.532;8.722;2023-02-08T19:59:02;0.60;99.90
26589;DHT22;14235;48.532;8.722;2023-02-08T20:01:28;0.80;99.90
26589;DHT22;14235;48.532;8.722;2023-02-08T20:03:54;0.40;99.90
26589;DHT22;14235;48.532;8.722;2023-02-08T20:06:25;0.50;99.90
26589;DHT22;14235;48.532;8.722;2023-02-08T20:08:51;0.80;99.90
26589;DHT22;14235;48.532;8.722;2023-02-08T20:11:29;0.40;99.90
26589;DHT22;14235;48.532;8.722;2023-02-08T20:13:57;0.40;99.90
26589;DHT22;14235;48.532;8.722;2023-02-08T20:16:23;1.60;99.90
26589;DHT22;14235;48.532;8.722;2023-02-08T20:21:17;0.40;99.90
26589;DHT22;14235;48.532;8.722;2023-02-08T20:23:43;0.30;99.90
26589;DHT22;14235;48.532;8.722;2023-02-08T20:26:15;-0.10;99.90
26589;DHT22;14235;48.532;8.722;2023-02-08T20:31:12;-0.30;99.90
26589;DHT22;14235;48.532;8.722;2023-02-08T20:33:42;-0.20;99.90
26589;DHT22;14235;48.532;8.722;2023-02-08T20:36:13;-0.20;99.90
26589;DHT22;14235;48.532;8.722;2023-02-08T20:38:40;0.10;99.90
26589;DHT22;14235;48.532;8.722;2023-02-08T20:41:09;-0.10;99.90
26589;DHT22;14235;48.532;8.722;2023-02-08T20:43:36;-0.10;99.90
26589;DHT22;14235;48.532;8.722;2023-02-08T20:46:38;0.30;99.90
26589;DHT22;14235;48.532;8.722;2023-02-08T20:49:06;-0.10;99.90
26589;DHT22;14235;48.532;8.722;2023-02-08T20:51:33;-0.10;99.90
26589;DHT22;14235;48.532;8.722;2023-02-08T20:54:00;-0.10;99.90
26589;DHT22;14235;48.532;8.722;2023-02-08T20:56:33;-0.20;99.90
26589;DHT22;14235;48.532;8.722;2023-02-08T20:59:08;0.00;99.90
26589;DHT22;14235;48.532;8.722;2023-02-08T21:01:35;-0.10;99.90
26589;DHT22;14235;48.532;8.722;2023-02-08T21:04:02;-0.20;99.90
26589;DHT22;14235;48.532;8.722;2023-02-08T21:06:33;-0.20;99.90
26589;DHT22;14235;48.532;8.722;2023-02-08T21:09:03;-0.20;99.90
26589;DHT22;14235;48.532;8.722;2023-02-08T21:11:30;-0.30;99.90
26589;DHT22;14235;48.532;8.722;2023-02-08T21:13:57;0.70;99.90
26589;DHT22;14235;48.532;8.722;2023-02-08T21:16:24;-0.30;99.90
26589;DHT22;14235;48.532;8.722;2023-02-08T21:18:50;-0.40;99.90
26589;DHT22;14235;48.532;8.722;2023-02-08T21:21:17;-0.40;99.90
26589;DHT22;14235;48.532;8.722;2023-02-08T21:23:43;-0.50;99.90
26589;DHT22;14235;48.532;8.722;2023-02-08T21:26:12;-0.60;99.90
26589;DHT22;14235;48.532;8.722;2023-02-08T21:28:38;-0.50;99.90
26589;DHT22;14235;48.532;8.722;2023-02-08T21:31:07;-0.60;99.90
26589;DHT22;14235;48.532;8.722;2023-02-08T21:33:34;-0.50;99.90
26589;DHT22;14235;48.532;8.722;2023-02-08T21:36:02;-0.60;99.90
26589;DHT22;14235;48.532;8.722;2023-02-08T21:38:28;-0.80;99.90
26589;DHT22;14235;48.532;8.722;2023-02-08T21:40:54;-0.70;99.90
26589;DHT22;14235;48.532;8.722;2023-02-08T21:43:19;-0.80;99.90
26589;DHT22;14235;48.532;8.722;2023-02-08T21:45:45;-0.80;99.90
26589;DHT22;14235;48.532;8.722;2023-02-08T21:48:11;-0.80;99.90
26589;DHT22;14235;48.532;8.722;2023-02-08T21:50:39;-0.40;99.90
26589;DHT22;14235;48.532;8.722;2023-02-08T21:53:23;-0.50;99.90
26589;DHT22;14235;48.532;8.722;2023-02-08T21:56:08;-0.80;99.90
26589;DHT22;14235;48.532;8.722;2023-02-08T21:58:34;-0.90;99.90
26589;DHT22;14235;48.532;8.722;2023-02-08T22:01:00;-0.80;99.90
26589;DHT22;14235;48.532;8.722;2023-02-08T22:03:27;-1.00;99.90
26589;DHT22;14235;48.532;8.722;2023-02-08T22:05:55;-0.90;99.90
26589;DHT22;14235;48.532;8.722;2023-02-08T22:08:42;-0.90;99.90
26589;DHT22;14235;48.532;8.722;2023-02-08T22:11:13;-0.80;99.90
26589;DHT22;14235;48.532;8.722;2023-02-08T22:13:42;-0.90;99.90
26589;DHT22;14235;48.532;8.722;2023-02-08T22:16:08;-1.00;99.90
26589;DHT22;14235;48.532;8.722;2023-02-08T22:18:43;-1.20;99.90
26589;DHT22;14235;48.532;8.722;2023-02-08T22:21:13;-1.10;99.90
26589;DHT22;14235;48.532;8.722;2023-02-08T22:23:39;-1.10;99.90
26589;DHT22;14235;48.532;8.722;2023-02-08T22:26:09;-1.20;99.90
26589;DHT22;14235;48.532;8.722;2023-02-08T22:28:35;-1.10;99.90
26589;DHT22;14235;48.532;8.722;2023-02-08T22:31:01;-1.20;99.90
26589;DHT22;14235;48.532;8.722;2023-02-08T22:33:27;-1.10;99.90
26589;DHT22;14235;48.532;8.722;2023-02-08T22:35:53;-1.20;99.90
26589;DHT22;14235;48.532;8.722;2023-02-08T22:38:22;-1.30;99.90
26589;DHT22;14235;48.532;8.722;2023-02-08T22:40:48;-1.20;99.90
26589;DHT22;14235;48.532;8.722;2023-02-08T22:43:14;-1.20;99.90
26589;DHT22;14235;48.532;8.722;2023-02-08T22:45:41;-1.10;99.90
26589;DHT22;14235;48.532;8.722;2023-02-08T22:48:10;-1.30;99.90
26589;DHT22;14235;48.532;8.722;2023-02-08T22:50:37;-1.30;99.90
26589;DHT22;14235;48.532;8.722;2023-02-08T22:53:03;-1.50;99.90
26589;DHT22;14235;48.532;8.722;2023-02-08T22:55:29;-1.40;99.90
26589;DHT22;14235;48.532;8.722;2023-02-08T22:58:05;-1.40;99.90
26589;DHT22;14235;48.532;8.722;2023-02-08T23:00:33;-1.70;99.90
26589;DHT22;14235;48.532;8.722;2023-02-08T23:03:19;-1.50;99.90
26589;DHT22;14235;48.532;8.722;2023-02-08T23:05:49;-1.70;99.90
26589;DHT22;14235;48.532;8.722;2023-02-08T23:31:20;-1.80;99.90
26589;DHT22;14235;48.532;8.722;2023-02-08T23:34:09;-1.70;99.90
26589;DHT22;14235;48.532;8.722;2023-02-08T23:36:37;-1.70;99.90
26589;DHT22;14235;48.532;8.722;2023-02-08T23:39:03;-1.80;99.90
26589;DHT22;14235;48.532;8.722;2023-02-08T23:41:30;-1.70;99.90
26589;DHT22;14235;48.532;8.722;2023-02-08T23:43:57;-1.80;99.90
26589;DHT22;14235;48.532;8.722;2023-02-08T23:46:25;-1.90;99.90
26589;DHT22;14235;48.532;8.722;2023-02-08T23:48:51;-2.00;99.90
26589;DHT22;14235;48.532;8.722;2023-02-08T23:51:19;-2.10;99.90
26589;DHT22;14235;48.532;8.722;2023-02-08T23:53:45;-2.10;99.90
26589;DHT22;14235;48.532;8.722;2023-02-08T23:56:25;-2.00;99.90
26589;DHT22;14235;48.532;8.722;2023-02-08T23:58:53;-2.00;99.90
